• Join FlightAware (Why Join?)
  • Login
  • US Flag 
06:58PM EST


 

Airport Tracker/Info


-or-


 

Live Flight TrackerFlight Track Log ✈ UAL532 ✈ 17-Jun-2013 ✈ KDEN - KORD

Flight Track Log - Related Links

Times and Time Zones

All times are in EDT time to prevent confusion due to time zone crossing. See the UAL532 flight status page for this flight to view local times or setup timezone preferences in your user account.

Time Position Orientation Groundspeed Altitude Reporting Facility
EDT Latitude Longitude Course Direction KTS MPH feet Rate Location/Type
07:59AM 39.8833 -104.5667 90° East 193 222 6,800  Level Denver TRACON
08:00AM 39.8833 -104.4833 90° East 247 284 9,000 1,980 Climbing Denver TRACON
08:01AM 39.8667 -104.0794 90° East  Level FlightAware Approximate
08:01AM 39.8744 -104.4456 107° East 247 284 9,600  Level Denver Center
08:02AM 39.8667 -103.9323 90° East  Level FlightAware Approximate
08:02AM 39.8733 -104.3350 91° East 307 353 10,500  Level Denver Center
08:03AM 39.8702 -103.7859 72° East  Level FlightAware Approximate
08:03AM 39.8731 -104.2069 90° East 351 404 12,800  Level Denver Center
08:04AM 39.8834 -103.6415 90° East  Level FlightAware Approximate
08:04AM 39.8728 -104.0750 90° East 365 420 14,900  Level Denver Center
08:05AM 39.8708 -103.9339 91° East 377 434 17,300 1,980 Climbing Denver Center
08:06AM 39.8781 -103.7972 86° East 388 447 18,900 1,620 Climbing Denver Center
08:07AM 39.8917 -103.6525 83° East 389 448 20,600 1,620 Climbing Denver Center
08:08AM 39.9100 -103.5022 81° East 416 479 22,200 1,440 Climbing Denver Center
08:09AM 39.9278 -103.3506 81° East 424 488 23,600 1,260 Climbing Denver Center
08:10AM 39.9458 -103.1911 82° East 442 509 24,800 1,200 Climbing Denver Center
08:11AM 39.9636 -103.0286 82° East 453 521 26,100 1,200 Climbing Denver Center
08:12AM 39.9811 -102.8636 82° East 461 531 27,300 1,020 Climbing Denver Center
08:13AM 39.9997 -102.6917 82° East 472 543 28,200 900 Climbing Denver Center
08:14AM 40.0203 -102.4953 82° East 488 562 29,200 1,140 Climbing Denver Center
08:15AM 40.0383 -102.3242 82° East 497 572 30,500 1,140 Climbing Denver Center
08:16AM 40.0544 -102.1542 83° East 495 570 31,500 1,020 Climbing Denver Center
08:17AM 40.0753 -101.9550 82° East 496 571 32,600 1,140 Climbing Denver Center
08:18AM 40.0928 -101.7847 82° East 497 572 33,800 1,140 Climbing Denver Center
08:19AM 40.1089 -101.6169 83° East 491 565 34,900 540 Climbing Denver Center
08:20AM 40.1272 -101.4217 83° East 487 560 35,000  Climbing Denver Center
08:21AM 40.1425 -101.2536 83° East 489 563 35,000  Level Denver Center
08:22AM 40.1589 -101.0856 83° East 490 564 35,000  Level Denver Center
08:23AM 40.1778 -100.8864 83° East 495 570 35,000  Level Denver Center
08:24AM 40.1931 -100.7181 83° East 492 566 35,000  Level Denver Center
08:25AM 40.2122 -100.5492 81° East 492 566 35,000  Level Denver Center
08:26AM 40.2525 -100.3564 75° East 495 570 35,000  Level Denver Center
08:27AM 40.2856 -100.1917 75° East 492 566 35,000  Level Denver Center
08:28AM 40.3236 -99.9983 75° East 492 566 35,000  Level Denver Center
08:29AM 40.3539 -99.8511 75° East 495 570 35,000  Level Denver Center
08:30AM 40.3819 -99.7158 75° East 492 566 35,000  Level Minneapolis Center
08:30AM 40.3875 -99.6781 79° East 492 566 35,000  Level Denver Center
08:31AM 40.4214 -99.5042 76° East 494 568 35,000  Level Denver Center
08:32AM 40.4494 -99.3658 75° East 496 571 35,000  Level Minneapolis Center
08:33AM 40.4831 -99.1900 76° East 498 573 35,000  Level Minneapolis Center
08:34AM 40.5219 -98.9797 76° East 497 572 35,000  Level Minneapolis Center
08:35AM 40.5556 -98.8061 76° East 496 571 35,000  Level Minneapolis Center
08:36AM 40.5878 -98.6314 76° East 496 571 35,000  Level Minneapolis Center
08:37AM 40.6206 -98.4547 76° East 497 572 35,000  Level Minneapolis Center
08:38AM 40.6531 -98.2767 76° East 500 575 35,000  Level Minneapolis Center
08:39AM 40.6853 -98.0997 76° East 501 577 35,000  Level Minneapolis Center
08:40AM 40.7239 -97.8844 77° East 504 580 35,000  Level Minneapolis Center
08:41AM 40.7553 -97.7067 77° East 502 578 35,000  Level Minneapolis Center
08:42AM 40.7875 -97.5264 77° East 504 580 35,000  Level Minneapolis Center
08:43AM 40.8189 -97.3444 77° East 500 575 35,000  Level Minneapolis Center
08:44AM 40.8567 -97.1286 77° East 503 579 35,000  Level Minneapolis Center
08:45AM 40.8881 -96.9481 77° East 505 581 35,000  Level Minneapolis Center
08:46AM 40.9181 -96.7667 78° East 507 583 35,000  Level Minneapolis Center
08:47AM 40.9361 -96.5469 84° East 504 580 35,000  Level Minneapolis Center
08:48AM 40.9458 -96.3628 86° East 505 581 35,000  Level Minneapolis Center
08:49AM 40.9572 -96.1786 85° East 505 581 35,000  Level Minneapolis Center
08:50AM 40.9683 -95.9919 85° East 510 587 35,000  Level Minneapolis Center
08:51AM 40.9781 -95.8050 86° East 513 590 35,000  Level Minneapolis Center
08:53AM 40.9894 -95.6197 85° East 512 589 35,000  Level Minneapolis Center
08:54AM 41.0514 -95.3681 72° East 517 595 35,000  Level Minneapolis Center
08:55AM 41.0406 -95.1847 94° East 508 585 35,000  Level Minneapolis Center
08:56AM 40.9967 -95.0522 114° Southeast 494 568 35,000  Level Minneapolis Center
08:57AM 40.9289 -94.8536 114° Southeast 494 568 35,000  Level Minneapolis Center
08:58AM 40.8733 -94.6894 114° Southeast 491 565 35,000  Level Minneapolis Center
08:59AM 40.8136 -94.5131 114° Southeast 493 567 35,000  Level Minneapolis Center
09:00AM 40.7575 -94.3497 114° Southeast 494 568 35,000  Level Minneapolis Center
09:01AM 40.7008 -94.1836 114° Southeast 498 573 35,000  Level Minneapolis Center
09:02AM 40.6319 -93.9878 115° Southeast 496 571 35,000 60 Level Minneapolis Center
09:03AM 40.5628 -93.7914 115° Southeast 495 570 35,200 360 Climbing Minneapolis Center
09:04AM 40.5061 -93.6281 114° Southeast 496 571 35,800 540 Climbing Minneapolis Center
09:05AM 40.4819 -93.5614 115° Southeast 495 570 36,000 720 Climbing Kansas City Center
09:06AM 40.4233 -93.3975 115° Southeast 499 574 36,900 480 Climbing Kansas City Center
09:07AM 40.3658 -93.2339 115° Southeast 499 574 37,000  Climbing Kansas City Center
09:08AM 40.3075 -93.0719 115° Southeast 497 572 37,000  Level Kansas City Center
09:09AM 40.2414 -92.8850 115° Southeast 502 578 37,000  Level Kansas City Center
09:10AM 40.1986 -92.6828 105° East 516 594 37,000  Level Kansas City Center
09:11AM 40.2319 -92.5028 76° East 530 610 37,000  Level Kansas City Center
09:12AM 40.2911 -92.3050 69° East 545 627 37,000 -240 Level Kansas City Center
09:13AM 40.3447 -92.1239 69° East 544 626 36,600 -480 Descending Kansas City Center
09:14AM 40.3758 -92.0172 69° East 535 616 36,200 -900 Descending Chicago Center
09:15AM 40.4275 -91.8408 69° East 525 604 35,200 -900 Descending Chicago Center
09:15AM 40.4472 -91.7700 70° East 523 602 34,900 -960 Descending Kansas City Center
09:16AM 40.4981 -91.5931 69° East 522 601 33,900 -960 Descending Kansas City Center
09:17AM 40.5592 -91.3825 69° East 519 597 33,000 -480 Descending Kansas City Center
09:18AM 40.6144 -91.2197 66° East 518 596 33,000  Level Kansas City Center
09:19AM 40.6508 -91.1175 65° Northeast 517 595 33,000 -1,080 Level Chicago Center
09:20AM 40.7228 -90.9103 65° Northeast 517 595 31,200 -1,620 Descending Chicago Center
09:21AM 40.7792 -90.7425 66° East 505 581 29,700 -1,140 Descending Chicago Center
09:22AM 40.8350 -90.5767 66° East 494 568 28,900 -840 Descending Chicago Center
09:23AM 40.8914 -90.4067 66° East 499 574 28,000 -900 Descending Chicago Center
09:24AM 40.9536 -90.2214 66° East 499 574 27,100 -780 Descending Chicago Center
09:25AM 41.0042 -90.0697 66° East 495 570 26,400 -780 Descending Chicago Center
09:26AM 41.0583 -89.9033 67° East 488 562 25,500 -840 Descending Chicago Center
09:27AM 41.1128 -89.7369 66° East 487 560 24,700 -780 Descending Chicago Center
09:28AM 41.1778 -89.5417 66° East 481 554 23,900 -1,440 Descending Chicago Center
09:29AM 41.2417 -89.3889 61° Northeast 477 549 21,800 -2,100 Descending Chicago Center
09:30AM 41.3006 -89.2406 62° Northeast 459 528 19,600 -2,460 Descending Chicago Center
09:31AM 41.3561 -89.0992 62° Northeast 431 496 16,800 -2,880 Descending Chicago Center
09:32AM 41.4114 -88.9592 62° Northeast 429 494 13,700 -2,760 Descending Chicago Center
09:33AM 41.4672 -88.8197 62° Northeast 429 494 11,100 -1,320 Descending Chicago Center
09:34AM 41.5267 -88.6722 62° Northeast 382 440 11,000 -60 Descending Chicago Center
09:35AM 41.5733 -88.5508 63° Northeast 368 423 11,000  Level Chicago Center
09:36AM 41.6283 -88.4325 58° Northeast 375 432 11,000  Level Chicago Center
09:37AM 41.6928 -88.3239 52° Northeast 372 428 11,000  Level Chicago Center
09:38AM 41.7553 -88.2144 53° Northeast 371 427 11,000 -420 Level Chicago Center
09:39AM 41.8108 -88.1200 52° Northeast 333 383 10,200 -1,020 Descending Chicago Center
09:40AM 41.8617 -88.0278 53° Northeast 308 354 8,900 -1,500 Descending Chicago Center
09:41AM 41.8839 -87.9061 76° East 293 337 7,200 -960 Descending Chicago Center
09:42AM 41.8842 -87.7997 90° East 287 330 7,000 -240 Descending Chicago Center